Terminal Aerodrome Forecast
Issued by NWS Springfield, MO

Home | Current Version | Previous Version | Text Only | Print | Product List | Glossary On
Versions: 1 2 3 4 5 6 7 8 9 10 11 12 13 14 15 16 17 18 19 20 21 22 23 24 25
212
FTUS43 KSGF 252337
TAFSGF
TAF
KSGF 252337Z 2600/2624 17010KT P6SM SCT040
     FM260800 16012KT P6SM BKN015
     FM261100 16012KT 6SM BR BKN008 OVC015
     FM261500 19011G16KT P6SM SCT020 BKN040 PROB30 2618/2624 -TSRA
      BKN040CB=

USA.gov is the U.S. government's official web portal to all federal, state and local government web resources and services.